createdAt,value
2023-03-10T10:51:00.918Z,9.98
2023-03-10T10:53:34.341Z,9.05
2023-03-10T10:56:15.224Z,7.95
2023-03-10T10:58:45.612Z,6.95
2023-03-10T11:01:16.481Z,7.85
2023-03-10T11:03:49.005Z,7.53
2023-03-10T11:06:32.302Z,7.25
2023-03-10T11:09:12.703Z,7.93
2023-03-10T11:11:58.893Z,8.05
2023-03-10T11:14:26.131Z,8.52
2023-03-10T11:17:03.159Z,8.20
2023-03-10T11:19:49.912Z,8.98
2023-03-10T11:22:35.328Z,7.95
2023-03-10T11:25:22.086Z,9.30
2023-03-10T11:27:52.437Z,7.45
2023-03-10T11:30:31.061Z,7.22
2023-03-10T11:33:22.037Z,8.43
2023-03-10T11:35:52.548Z,9.25
2023-03-10T11:38:35.150Z,9.13
2023-03-10T11:41:24.012Z,7.75
2023-03-10T11:44:12.033Z,7.43
2023-03-10T11:46:59.545Z,7.75
2023-03-10T11:49:35.582Z,7.70
2023-03-10T11:52:15.178Z,7.82
2023-03-10T11:54:50.133Z,7.55
2023-03-10T11:57:20.135Z,8.20
2023-03-10T11:59:57.723Z,7.05
2023-03-10T12:02:33.854Z,8.15
2023-03-10T12:05:08.634Z,8.30
2023-03-10T12:07:42.887Z,8.77
2023-03-10T12:10:13.259Z,9.48
2023-03-10T12:12:51.427Z,9.43
2023-03-10T12:15:30.415Z,8.70
2023-03-10T12:17:58.448Z,8.50
2023-03-10T12:20:29.349Z,8.32
2023-03-10T12:22:59.222Z,8.95
2023-03-10T12:25:33.350Z,10.10
2023-03-10T12:28:19.180Z,9.45
2023-03-10T12:30:46.800Z,9.40
2023-03-10T12:33:44.671Z,10.38
2023-03-10T12:36:32.801Z,10.05
2023-03-10T12:39:19.960Z,10.82
2023-03-10T12:41:53.203Z,12.38
2023-03-10T12:44:44.384Z,11.20
2023-03-10T12:47:30.565Z,11.25
2023-03-10T12:50:27.350Z,10.27
2023-03-10T12:53:05.768Z,10.38
2023-03-10T12:55:33.673Z,10.05
2023-03-10T12:58:07.560Z,7.68
2023-03-10T13:00:58.881Z,7.15
2023-03-10T13:03:46.890Z,8.40
2023-03-10T13:06:14.227Z,9.07
2023-03-10T13:08:46.633Z,8.32
2023-03-10T13:11:19.827Z,8.95
2023-03-10T13:13:56.370Z,8.35
2023-03-10T13:16:23.780Z,8.52
2023-03-10T13:18:53.229Z,8.05
2023-03-10T13:21:32.026Z,9.13
2023-03-10T13:24:01.540Z,7.85
2023-03-10T13:26:29.127Z,8.25
2023-03-10T13:29:00.113Z,7.78
2023-03-10T13:31:30.527Z,9.88
2023-03-10T13:33:58.475Z,9.85
2023-03-10T13:36:35.945Z,10.05
2023-03-10T13:39:15.970Z,9.02
2023-03-10T13:41:51.780Z,10.15
2023-03-10T13:44:40.784Z,8.48
2023-03-10T13:47:24.079Z,9.80
2023-03-10T13:49:55.180Z,9.02
2023-03-10T13:52:25.666Z,8.77
2023-03-10T13:55:04.209Z,8.15
2023-03-10T13:57:37.049Z,7.88
2023-03-10T14:00:08.949Z,8.45
2023-03-10T14:02:41.547Z,8.25
2023-03-10T14:05:43.713Z,6.72
2023-03-10T14:10:46.784Z,8.25
2023-03-10T14:13:40.199Z,8.68
2023-03-10T14:16:08.552Z,9.70
2023-03-10T14:18:37.858Z,9.98
2023-03-10T14:21:26.143Z,8.18
2023-03-10T14:23:53.668Z,10.02
2023-03-10T14:26:20.977Z,7.97
2023-03-10T14:28:48.465Z,8.38
2023-03-10T14:31:22.648Z,7.38
2023-03-10T14:33:51.003Z,7.07
2023-03-10T14:36:18.562Z,6.90
2023-03-10T14:38:46.177Z,6.60
2023-03-10T14:41:14.390Z,6.20
2023-03-10T14:43:42.601Z,6.63
2023-03-10T14:46:12.210Z,7.15
2023-03-10T14:48:41.921Z,7.00
2023-03-10T14:51:32.528Z,6.85
2023-03-10T14:54:00.135Z,8.13
2023-03-10T14:56:28.400Z,8.70
2023-03-10T14:58:56.716Z,8.05
2023-03-10T15:01:24.135Z,7.95
2023-03-10T15:03:51.633Z,8.00
2023-03-10T15:06:20.445Z,7.28
2023-03-10T15:08:47.835Z,7.00
2023-03-10T15:11:24.067Z,7.28
2023-03-10T15:13:58.280Z,7.38
2023-03-10T15:16:25.786Z,8.48
2023-03-10T15:18:53.949Z,8.55
2023-03-10T15:21:21.324Z,9.43
2023-03-10T15:23:48.616Z,9.07
2023-03-10T15:26:15.912Z,9.55
2023-03-10T15:28:43.269Z,9.68
2023-03-10T15:31:10.647Z,9.40
2023-03-10T15:33:38.408Z,11.40
2023-03-10T15:36:06.812Z,10.88
2023-03-10T15:38:34.150Z,10.15
2023-03-10T15:41:01.392Z,9.75
2023-03-10T15:43:28.753Z,9.43
2023-03-10T15:45:56.143Z,8.65
2023-03-10T15:48:23.473Z,8.77
2023-03-10T15:50:50.824Z,10.18
2023-03-10T15:53:18.139Z,9.57
2023-03-10T15:55:45.733Z,10.40
2023-03-10T15:58:13.142Z,11.30
2023-03-10T16:00:42.314Z,9.48
2023-03-10T16:03:11.132Z,10.82
2023-03-10T16:05:39.276Z,11.70
2023-03-10T16:08:06.673Z,11.85
2023-03-10T16:10:35.072Z,12.35
2023-03-10T16:13:02.536Z,12.60
2023-03-10T16:15:29.925Z,11.95
2023-03-10T16:17:57.678Z,13.23
2023-03-10T16:20:24.994Z,12.45
2023-03-10T16:22:52.244Z,13.35
2023-03-10T16:25:21.217Z,13.25
2023-03-10T16:27:48.904Z,14.18
2023-03-10T16:30:17.655Z,15.13
2023-03-10T16:32:49.134Z,14.90
2023-03-10T16:35:17.631Z,14.75
2023-03-10T16:37:45.063Z,15.18
2023-03-10T16:40:13.196Z,15.35
2023-03-10T16:42:43.428Z,15.90
2023-03-10T16:45:11.310Z,16.23
2023-03-10T16:47:38.772Z,16.52
2023-03-10T16:50:06.541Z,16.70
2023-03-10T16:52:40.023Z,17.52
2023-03-10T16:55:09.394Z,16.83
2023-03-10T16:57:36.808Z,17.85
2023-03-10T17:00:05.768Z,16.80
2023-03-10T17:02:33.162Z,16.95
2023-03-10T17:05:00.627Z,17.63
2023-03-10T17:07:28.001Z,19.42
2023-03-10T17:09:55.510Z,18.92
2023-03-10T17:12:23.127Z,19.05
2023-03-10T17:14:50.898Z,18.60
2023-03-10T17:17:18.404Z,19.20
2023-03-10T17:19:45.815Z,19.08
2023-03-10T17:22:13.163Z,21.08
2023-03-10T17:24:40.450Z,19.80
2023-03-10T17:27:07.826Z,19.23
2023-03-10T17:29:35.523Z,19.70
2023-03-10T17:32:03.040Z,21.50
2023-03-10T17:34:30.408Z,20.58
2023-03-10T17:36:57.815Z,22.05
2023-03-10T17:39:27.560Z,21.00
2023-03-10T17:41:55.138Z,20.73
2023-03-10T17:44:22.674Z,20.73
2023-03-10T17:46:52.536Z,22.10
2023-03-10T17:49:19.861Z,21.80
2023-03-10T17:51:47.490Z,21.73
2023-03-10T17:54:20.327Z,21.70
2023-03-10T17:56:48.851Z,23.85
2023-03-10T17:59:16.662Z,23.80
2023-03-10T18:01:45.291Z,22.58
2023-03-10T18:04:13.104Z,23.73
2023-03-10T18:06:40.973Z,23.33
2023-03-10T18:09:12.143Z,22.95
2023-03-10T18:11:39.733Z,24.10
2023-03-10T18:14:07.618Z,23.33
2023-03-10T18:16:38.553Z,23.02
2023-03-10T18:19:09.854Z,23.40
2023-03-10T18:24:06.562Z,22.10
2023-03-10T18:26:35.541Z,21.30
2023-03-10T18:29:02.997Z,21.10
2023-03-10T18:31:32.704Z,19.80
2023-03-10T18:34:00.624Z,20.67
2023-03-10T18:36:28.631Z,19.88
2023-03-10T18:38:56.424Z,19.75
2023-03-10T18:41:26.695Z,20.60
2023-03-10T18:43:54.120Z,18.92
2023-03-10T18:46:22.319Z,19.63
2023-03-10T18:48:55.476Z,20.60
2023-03-10T18:51:27.578Z,19.33
2023-03-10T18:53:55.480Z,19.48
2023-03-10T18:56:26.009Z,18.40
2023-03-10T18:58:53.694Z,18.40
2023-03-10T19:01:21.172Z,16.42
2023-03-10T19:03:48.499Z,17.10
2023-03-10T19:06:15.889Z,17.58
2023-03-10T19:08:44.115Z,16.80
2023-03-10T19:11:12.058Z,16.52
2023-03-10T19:13:40.623Z,17.30
2023-03-10T19:16:08.889Z,16.77
2023-03-10T19:18:36.723Z,17.05
2023-03-10T19:21:04.963Z,16.13
2023-03-10T19:23:34.892Z,16.20
2023-03-10T19:26:02.850Z,15.18
2023-03-10T19:28:30.523Z,15.43
2023-03-10T19:30:58.038Z,14.90
2023-03-10T19:33:25.438Z,16.30
2023-03-10T19:36:03.959Z,16.42
2023-03-10T19:38:31.618Z,16.17
2023-03-10T19:40:59.126Z,16.95
2023-03-10T19:43:26.441Z,16.48
2023-03-10T19:46:08.084Z,16.70
2023-03-10T19:48:35.927Z,15.85
2023-03-10T19:51:05.530Z,17.05
2023-03-10T19:53:33.965Z,15.98
2023-03-10T19:56:04.431Z,16.50
2023-03-10T19:58:32.318Z,17.92
2023-03-10T20:01:00.435Z,15.02
2023-03-10T20:03:30.235Z,14.70
2023-03-10T20:05:58.028Z,14.70
2023-03-10T20:08:25.400Z,13.88
2023-03-10T20:10:52.828Z,12.77
2023-03-10T20:13:20.292Z,11.35
2023-03-10T20:15:47.776Z,12.05
2023-03-10T20:18:18.414Z,11.27
2023-03-10T20:20:45.932Z,10.80
2023-03-10T20:23:14.047Z,11.55
2023-03-10T20:25:42.059Z,10.48
2023-03-10T20:28:10.194Z,11.30
2023-03-10T20:30:37.705Z,10.20
2023-03-10T20:33:05.200Z,10.88
2023-03-10T20:35:33.330Z,11.15
2023-03-10T20:38:02.046Z,10.82
2023-03-10T20:40:29.521Z,10.40
2023-03-10T20:42:59.603Z,12.40
2023-03-10T20:45:27.545Z,11.77
2023-03-10T20:47:54.951Z,11.70
2023-03-10T20:50:23.209Z,12.00
2023-03-10T20:52:51.224Z,11.52
2023-03-10T20:55:25.219Z,10.85
2023-03-10T20:57:54.331Z,9.38
2023-03-10T21:00:24.768Z,9.77
2023-03-10T21:02:53.420Z,9.75
2023-03-10T21:05:21.059Z,7.28
2023-03-10T21:07:50.000Z,8.68
2023-03-10T21:10:18.169Z,8.18
2023-03-10T21:12:45.838Z,7.93
2023-03-10T21:15:15.391Z,7.38
2023-03-10T21:17:43.190Z,7.00
2023-03-10T21:20:15.402Z,6.60
2023-03-10T21:22:43.329Z,6.88
2023-03-10T21:25:16.786Z,6.47
2023-03-10T21:27:47.684Z,6.45
2023-03-10T21:30:15.959Z,6.57
2023-03-10T21:32:44.091Z,6.00
2023-03-10T21:35:13.719Z,5.65
2023-03-10T21:37:42.843Z,5.03
2023-03-10T21:40:15.018Z,4.65
2023-03-10T21:42:42.587Z,4.53
2023-03-10T21:45:13.613Z,3.58
2023-03-10T21:47:41.277Z,3.60
2023-03-10T21:50:09.478Z,3.03
2023-03-10T21:52:37.084Z,3.17
2023-03-10T21:55:05.189Z,3.40
2023-03-10T21:57:32.580Z,3.25
2023-03-10T22:00:00.141Z,3.17
2023-03-10T22:02:30.598Z,2.95
2023-03-10T22:04:58.002Z,2.60
2023-03-10T22:07:25.290Z,3.60
2023-03-10T22:09:52.641Z,3.05
2023-03-10T22:12:20.110Z,3.20
2023-03-10T22:14:50.264Z,3.30
2023-03-10T22:17:17.579Z,3.00
2023-03-10T22:19:47.968Z,3.45
2023-03-10T22:22:15.299Z,3.08
2023-03-10T22:24:43.647Z,3.03
2023-03-10T22:27:11.030Z,2.80
2023-03-10T22:29:38.405Z,2.88
2023-03-10T22:32:06.604Z,3.08
2023-03-10T22:34:34.053Z,2.78
2023-03-10T22:37:01.489Z,2.58
2023-03-10T22:39:28.858Z,2.42
2023-03-10T22:41:56.252Z,3.20
2023-03-10T22:44:23.699Z,2.15
2023-03-10T22:46:51.884Z,2.60
2023-03-10T22:49:19.548Z,2.55
2023-03-10T22:51:47.710Z,2.40
2023-03-10T22:54:15.201Z,2.63
2023-03-10T22:56:42.469Z,2.90
2023-03-10T22:59:09.876Z,2.55
2023-03-10T23:01:37.485Z,2.55
2023-03-10T23:04:04.988Z,2.35
2023-03-10T23:06:35.592Z,3.03
2023-03-10T23:09:04.972Z,2.20
2023-03-10T23:11:32.338Z,2.13
2023-03-10T23:14:03.527Z,1.80
2023-03-10T23:16:36.571Z,2.00
2023-03-10T23:19:07.206Z,2.10
2023-03-10T23:21:36.106Z,2.20
2023-03-10T23:24:03.703Z,2.00
2023-03-10T23:26:31.504Z,1.88
2023-03-10T23:28:58.879Z,1.95
2023-03-10T23:31:26.253Z,1.88
2023-03-10T23:33:53.634Z,1.80
2023-03-10T23:36:21.022Z,2.00
2023-03-10T23:38:48.387Z,2.00
2023-03-10T23:41:15.849Z,1.95
2023-03-10T23:43:43.333Z,2.28
2023-03-10T23:46:10.730Z,1.95
2023-03-10T23:48:38.163Z,1.92
2023-03-10T23:51:05.787Z,2.08
2023-03-10T23:53:33.060Z,2.05
2023-03-10T23:56:00.472Z,2.33
2023-03-10T23:58:29.421Z,1.77
